Wellington, FL

2:25 PM EDT on June 02, 2015 (GMT -0400)
Pinewood West | | Change Station
CLOSE
Current Station
Personal Weather Station
Location: Wellington, FL
Elevation: 43 ft
Nearby Weather Stations

Elev 43 ft 26.68 °N, 80.25 °W | Updated 1 second ago

Mostly Cloudy
Mostly Cloudy
85.3 °F
Feels Like 82 °F
N
0.0
Wind Variable Wind from South
Gusts 0.0 mph

Today
High -- | Low -- °F
--% Chance of Precip.
Yesterday
High -- | Low -- °F
Precip. -- in
6:27 AM 8:10 PM
Full, 100% visible
Pressure 30.01 in
Visibility 10.0 miles
Clouds Scattered Clouds 3100 ft
Scattered Clouds 6500 ft
Mostly Cloudy 21000 ft
Heat Index 82 °F
Dew Point 25 °F
Humidity 11%
Rainfall 0.00 in
Snow Depth Not available.
UV 2.0 out of 12
Pollen 1.50 out of 12
Air Quality Not available.
Flu Activity Sporadic
METAR KPBI 021753Z 12010KT 10SM SCT031 SCT065 BKN210 29/19 A3001 RMK AO2 SLP162 CB DSNT NE SW-NW T02890194 10294 20272 58007 $

More Conditions Fewer Conditions

Pressure 30.01 in
Visibility 10.0 miles
Clouds Scattered Clouds 3100 ft
Scattered Clouds 6500 ft
Mostly Cloudy 21000 ft
Heat Index 82 °F
Dew Point 25 °F
Humidity 11%
Rainfall 0.00 in
Snow Depth Not available.
UV 2.0 out of 12
Pollen 1.50 out of 12
Air Quality Not available.
Flu Activity Sporadic
METAR KPBI 021753Z 12010KT 10SM SCT031 SCT065 BKN210 29/19 A3001 RMK AO2 SLP162 CB DSNT NE SW-NW T02890194 10294 20272 58007 $

More Conditions Fewer Conditions

Nowcast | as of 12:58 PM EDT on June 2, 2015

Through this afternoon...isolated to scattered showers and even a thunderstorm will continue to develop over the interior and West Coast Metro areas. The activity will move slowly to the west/northwest. Any storms that do move develop will be capable of producing wind gusts up to 40 mph...lightning strikes...and heavy rainfall. If you can see lightning or hear thunder move inside until the storms have passed by.

×

10-Day Weather Forecast

×

Almanac

Astronomy

Jun. 02, 2015 Rise Set
Actual Time
Civil Twilight
Nautical Twilight
Astronomical Twilight
Moon
Length of Visible Light
Length of Day
Tomorrow will be .
, % of the Moon is Illuminated

Today's Extremes

State Highs State Lows

Community

WunderPhotos

Upload Photos

1,825,995 photos uploaded!

WunderBlogs® & News

Nearby

Air Quality

  Air Quality AQ Index Pollutant
Not available.

Snow Depth

Station Depth Elevation

Earthquake Activity

City Distance Mag. Time & Date
Minimum magnitude displayed is 2.5.

Coastal Water Temperatures

Place Temperature

Stations

Nearby Weather Stations

Station Location Temp. Windchill Dew Point Humidity Wind Precip. Elev Updated Type